Time;durP1;ratioP1;P1;durP2;ratioP2;P2;SDS_P1;SDS_P2;PMS_P1;PMS_P2;Temp;Humidity;BMP_temperature;BMP_pressure;BME280_temperature;BME280_humidity;BME280_pressure;Samples;Min_cycle;Max_cycle;Signal;HPM_P1;HPM_P2
2021/12/07 00:02:20;;;;;;;20.23;10.98;;;;;;;;;;4957516;28;20051;-66
2021/12/07 00:04:47;;;;;;;21.77;10.82;;;;;;;;;;4948775;28;20073;-67
2021/12/07 00:07:13;;;;;;;20.10;10.52;;;;;;;;;;4947261;28;20545;-66
2021/12/07 00:09:43;;;;;;;20.23;10.02;;;;;;;;;;4947948;28;20051;-66
2021/12/07 00:12:10;;;;;;;16.95;9.38;;;;;;;;;;4950843;28;20055;-66
2021/12/07 00:14:40;;;;;;;23.00;10.35;;;;;;;;;;4948255;28;20043;-66
2021/12/07 00:17:06;;;;;;;19.90;10.70;;;;;;;;;;4960803;28;20118;-66
2021/12/07 00:19:32;;;;;;;22.52;10.55;;;;;;;;;;4953264;28;20046;-66
2021/12/07 00:21:58;;;;;;;18.77;9.90;;;;;;;;;;4959027;28;20047;-66
2021/12/07 00:24:25;;;;;;;18.67;10.20;;;;;;;;;;4950351;28;20042;-67
2021/12/07 00:26:51;;;;;;;20.35;10.88;;;;;;;;;;4948654;28;20437;-70
2021/12/07 00:29:18;;;;;;;18.65;10.80;;;;;;;;;;4962761;28;20046;-66
2021/12/07 00:31:52;;;;;;;17.42;9.82;;;;;;;;;;4962060;28;20047;-66
2021/12/07 00:34:43;;;;;;;17.35;9.80;;;;;;;;;;4952561;28;20047;-66
2021/12/07 00:37:09;;;;;;;20.00;9.90;;;;;;;;;;4954412;28;20537;-66
2021/12/07 00:39:36;;;;;;;19.42;9.85;;;;;;;;;;4948025;28;20043;-66
2021/12/07 00:42:02;;;;;;;19.75;10.57;;;;;;;;;;4956620;28;20043;-66
2021/12/07 00:44:29;;;;;;;18.85;10.35;;;;;;;;;;4956692;28;20051;-66
2021/12/07 00:46:55;;;;;;;19.30;10.38;;;;;;;;;;4961728;28;20047;-66
2021/12/07 00:49:21;;;;;;;16.50;9.70;;;;;;;;;;4954974;28;20532;-67
2021/12/07 00:51:48;;;;;;;18.60;10.60;;;;;;;;;;4952895;28;20047;-66
2021/12/07 00:54:14;;;;;;;16.65;9.10;;;;;;;;;;4964323;28;20156;-66
2021/12/07 00:56:41;;;;;;;15.48;9.52;;;;;;;;;;4964845;28;20593;-65
2021/12/07 00:59:07;;;;;;;17.17;9.65;;;;;;;;;;4947533;28;20039;-66
2021/12/07 01:01:33;;;;;;;18.42;10.30;;;;;;;;;;4935545;28;21267;-66
2021/12/07 01:04:00;;;;;;;17.30;9.85;;;;;;;;;;4956851;28;20039;-66
2021/12/07 01:06:32;;;;;;;16.40;9.77;;;;;;;;;;4947783;28;20040;-66
2021/12/07 01:25:14;;;;;;;17.90;9.80;;;;;;;;;;4964358;28;20046;-66
2021/12/07 01:27:41;;;;;;;17.88;10.15;;;;;;;;;;4964423;28;20116;-65
2021/12/07 01:30:16;;;;;;;16.35;9.30;;;;;;;;;;4954959;28;20044;-65
2021/12/07 01:33:00;;;;;;;19.65;10.00;;;;;;;;;;4951292;28;20397;-65
2021/12/07 01:38:32;;;;;;;16.15;9.50;;;;;;;;;;4950040;28;20043;-65
2021/12/07 01:43:54;;;;;;;15.98;9.07;;;;;;;;;;4956280;28;20044;-65
2021/12/07 01:59:36;;;;;;;15.73;9.18;;;;;;;;;;4965778;28;20043;-66
2021/12/07 02:02:04;;;;;;;14.98;8.80;;;;;;;;;;4964788;23;20147;-65
2021/12/07 02:04:30;;;;;;;;;;;;;;;;;;4948738;29;20043;-66
2021/12/07 02:06:57;;;;;;;14.38;8.68;;;;;;;;;;4932181;29;20333;-65
2021/12/07 02:09:23;;;;;;;13.65;8.15;;;;;;;;;;4931183;29;20034;-66
2021/12/07 02:11:51;;;;;;;14.50;8.77;;;;;;;;;;4936839;29;20047;-65
2021/12/07 02:14:18;;;;;;;14.85;8.95;;;;;;;;;;4930685;29;20063;-66
2021/12/07 02:16:45;;;;;;;16.15;9.25;;;;;;;;;;4948190;29;20054;-65
2021/12/07 02:19:12;;;;;;;16.83;8.23;;;;;;;;;;4933678;29;20086;-65
2021/12/07 02:21:38;;;;;;;16.00;8.70;;;;;;;;;;4930973;29;20047;-65
2021/12/07 02:24:04;;;;;;;15.43;8.93;;;;;;;;;;4913643;29;20123;-66
2021/12/07 02:26:30;;;;;;;17.25;8.88;;;;;;;;;;4931422;29;20493;-66
2021/12/07 02:28:57;;;;;;;21.05;10.05;;;;;;;;;;4914098;29;20544;-66
2021/12/07 02:31:23;;;;;;;15.23;8.82;;;;;;;;;;4937321;29;20047;-66
2021/12/07 02:33:49;;;;;;;16.70;9.02;;;;;;;;;;4942939;29;20044;-65
2021/12/07 02:36:16;;;;;;;16.15;9.35;;;;;;;;;;4930966;29;20181;-71
2021/12/07 02:38:42;;;;;;;15.45;9.05;;;;;;;;;;4929577;29;20042;-66
2021/12/07 02:41:08;;;;;;;15.77;9.10;;;;;;;;;;4936172;29;20572;-66
2021/12/07 02:43:35;;;;;;;15.98;9.13;;;;;;;;;;4935785;29;20088;-66
2021/12/07 02:46:01;;;;;;;14.85;9.10;;;;;;;;;;4930746;29;20048;-66
2021/12/07 02:48:27;;;;;;;15.68;9.30;;;;;;;;;;4948086;29;20186;-65
2021/12/07 02:50:54;;;;;;;17.70;9.88;;;;;;;;;;4935049;29;20044;-66
2021/12/07 02:53:22;;;;;;;14.77;8.63;;;;;;;;;;4931479;29;20441;-66
2021/12/07 02:55:50;;;;;;;16.70;8.85;;;;;;;;;;4930607;29;20039;-65
2021/12/07 02:58:16;;;;;;;16.10;9.80;;;;;;;;;;4947997;29;20084;-65
2021/12/07 03:00:50;;;;;;;14.82;9.02;;;;;;;;;;4946886;29;20047;-65
2021/12/07 03:03:17;;;;;;;16.75;8.95;;;;;;;;;;4945889;28;20059;-65
2021/12/07 03:06:01;;;;;;;16.73;9.40;;;;;;;;;;4943296;29;20126;-65
2021/12/07 03:09:04;;;;;;;16.00;9.38;;;;;;;;;;4944800;29;20054;-65
2021/12/07 03:27:55;;;;;;;13.13;8.27;;;;;;;;;;4932468;29;20040;-66
2021/12/07 03:30:21;;;;;;;16.77;8.30;;;;;;;;;;4935943;29;20062;-69
2021/12/07 03:32:48;;;;;;;14.38;8.02;;;;;;;;;;4946658;29;20557;-65
2021/12/07 03:35:14;;;;;;;13.55;7.88;;;;;;;;;;4946360;29;20679;-66
2021/12/07 03:37:40;;;;;;;13.38;8.25;;;;;;;;;;4943623;29;20039;-65
2021/12/07 03:40:07;;;;;;;23.13;8.55;;;;;;;;;;4935118;29;20051;-65
2021/12/07 03:42:33;;;;;;;14.70;7.68;;;;;;;;;;4946365;29;20137;-65
2021/12/07 03:44:59;;;;;;;14.50;8.00;;;;;;;;;;4946378;29;20043;-65
2021/12/07 03:47:26;;;;;;;16.42;7.82;;;;;;;;;;4936850;29;20051;-65
2021/12/07 03:49:52;;;;;;;15.07;7.75;;;;;;;;;;4933957;29;20576;-66
2021/12/07 03:52:18;;;;;;;11.88;7.65;;;;;;;;;;4945997;29;20473;-66
2021/12/07 03:54:44;;;;;;;12.82;7.38;;;;;;;;;;4919900;29;20094;-66
2021/12/07 03:57:10;;;;;;;12.45;7.10;;;;;;;;;;4929296;29;20061;-66
2021/12/07 03:59:36;;;;;;;11.40;7.10;;;;;;;;;;4938663;29;20055;-64
2021/12/07 04:02:03;;;;;;;13.20;7.13;;;;;;;;;;4912017;29;20577;-65
2021/12/07 04:04:29;;;;;;;14.55;7.85;;;;;;;;;;4939123;29;20501;-65
2021/12/07 04:06:55;;;;;;;14.07;7.25;;;;;;;;;;4945123;29;20035;-66
2021/12/07 04:09:21;;;;;;;13.45;7.35;;;;;;;;;;4919321;29;20046;-66
2021/12/07 04:11:47;;;;;;;12.35;6.90;;;;;;;;;;4929926;29;20845;-65
2021/12/07 04:14:14;;;;;;;12.98;7.10;;;;;;;;;;4911579;29;20043;-65
2021/12/07 04:16:40;;;;;;;15.27;7.30;;;;;;;;;;4929172;29;20047;-65
2021/12/07 04:19:06;;;;;;;13.27;7.00;;;;;;;;;;4932913;29;20094;-66
2021/12/07 04:21:32;;;;;;;16.40;7.88;;;;;;;;;;4943474;29;20057;-65
2021/12/07 04:23:58;;;;;;;11.82;7.13;;;;;;;;;;4928977;29;20039;-66
2021/12/07 04:26:25;;;;;;;13.30;7.43;;;;;;;;;;4935689;29;20130;-66
2021/12/07 04:28:52;;;;;;;11.48;6.07;;;;;;;;;;4925117;29;20102;-66
2021/12/07 04:31:19;;;;;;;14.18;6.95;;;;;;;;;;4929459;29;20048;-66
2021/12/07 04:33:46;;;;;;;12.95;6.95;;;;;;;;;;4928789;29;20066;-66
2021/12/07 04:36:12;;;;;;;11.15;6.88;;;;;;;;;;4937959;29;20481;-66
2021/12/07 04:38:39;;;;;;;13.25;7.38;;;;;;;;;;4942125;29;20036;-65
2021/12/07 04:41:06;;;;;;;12.75;7.00;;;;;;;;;;4934983;29;20050;-65
2021/12/07 04:43:33;;;;;;;11.80;6.78;;;;;;;;;;4931496;29;20056;-65
2021/12/07 04:46:22;;;;;;;12.95;6.25;;;;;;;;;;4928584;29;20500;-66
2021/12/07 04:49:26;;;;;;;13.63;6.32;;;;;;;;;;4934523;29;20057;-66
2021/12/07 05:00:05;;;;;;;10.57;5.90;;;;;;;;;;4928759;29;20044;-66
2021/12/07 05:02:34;;;;;;;10.52;5.80;;;;;;;;;;4932561;29;20071;-66
2021/12/07 05:05:00;;;;;;;12.18;5.57;;;;;;;;;;4928516;29;20116;-66
2021/12/07 05:07:33;;;;;;;12.35;6.30;;;;;;;;;;4941116;29;20110;-66
2021/12/07 05:15:00;;;;;;;12.15;5.20;;;;;;;;;;4937250;29;20047;-67
2021/12/07 05:38:50;;;;;;;10.55;5.40;;;;;;;;;;4925215;29;20051;-66
2021/12/07 05:41:16;;;;;;;9.77;5.47;;;;;;;;;;4949294;29;20039;-66
2021/12/07 05:43:42;;;;;;;14.40;5.03;;;;;;;;;;4930708;29;20047;-66
2021/12/07 05:46:08;;;;;;;13.10;6.10;;;;;;;;;;4944655;29;20091;-66
2021/12/07 05:48:34;;;;;;;17.92;6.57;;;;;;;;;;4944941;29;20042;-67
2021/12/07 05:51:01;;;;;;;14.30;6.68;;;;;;;;;;4947384;29;20055;-67
2021/12/07 05:53:27;;;;;;;13.48;5.72;;;;;;;;;;4944108;29;20127;-67
2021/12/07 05:55:53;;;;;;;11.50;5.75;;;;;;;;;;4932494;29;20230;-67
2021/12/07 05:58:20;;;;;;;12.68;5.93;;;;;;;;;;4933147;29;20031;-67
2021/12/07 06:00:47;;;;;;;14.07;5.80;;;;;;;;;;4932409;29;20086;-66
2021/12/07 06:03:13;;;;;;;16.15;5.95;;;;;;;;;;4922311;29;20077;-67
2021/12/07 06:05:41;;;;;;;16.30;5.75;;;;;;;;;;4948467;29;20051;-66
2021/12/07 06:08:08;;;;;;;15.13;6.17;;;;;;;;;;4934271;29;20035;-70
2021/12/07 06:10:34;;;;;;;15.05;6.28;;;;;;;;;;4931094;29;20867;-70
2021/12/07 06:13:01;;;;;;;11.18;5.30;;;;;;;;;;4924767;29;20481;-72
2021/12/07 06:15:31;;;;;;;15.00;5.55;;;;;;;;;;4947869;29;20039;-70
2021/12/07 06:17:58;;;;;;;10.23;5.72;;;;;;;;;;4936781;29;20632;-70
2021/12/07 06:20:24;;;;;;;14.85;6.15;;;;;;;;;;4947733;29;20047;-70
2021/12/07 06:22:50;;;;;;;11.60;5.22;;;;;;;;;;4940606;29;20587;-70
2021/12/07 06:25:16;;;;;;;13.52;5.90;;;;;;;;;;4930002;29;20055;-70
2021/12/07 06:27:43;;;;;;;13.90;5.65;;;;;;;;;;4950048;28;20035;-71
2021/12/07 06:30:10;;;;;;;12.35;5.40;;;;;;;;;;4949531;28;20046;-70
2021/12/07 06:32:37;;;;;;;10.43;4.65;;;;;;;;;;4949103;28;20410;-71
2021/12/07 06:35:04;;;;;;;14.30;5.22;;;;;;;;;;4949430;29;20085;-70
2021/12/07 06:37:30;;;;;;;15.20;5.43;;;;;;;;;;4930038;29;20547;-71
2021/12/07 06:39:56;;;;;;;11.18;5.30;;;;;;;;;;4948409;29;20051;-71
2021/12/07 06:42:22;;;;;;;13.02;5.20;;;;;;;;;;4948604;29;20051;-70
2021/12/07 06:44:48;;;;;;;12.20;5.10;;;;;;;;;;4947918;29;20043;-71
2021/12/07 06:47:15;;;;;;;14.10;5.00;;;;;;;;;;4949329;29;20539;-71
2021/12/07 06:49:42;;;;;;;13.70;4.57;;;;;;;;;;4948545;29;20047;-71
2021/12/07 06:52:08;;;;;;;12.68;5.00;;;;;;;;;;4947287;29;20051;-70
2021/12/07 06:54:36;;;;;;;10.82;4.80;;;;;;;;;;4948864;29;20047;-71
2021/12/07 06:57:02;;;;;;;13.57;5.70;;;;;;;;;;4949061;29;20046;-71
2021/12/07 06:59:29;;;;;;;11.77;4.97;;;;;;;;;;4930529;29;20620;-71
2021/12/07 07:01:55;;;;;;;10.30;5.05;;;;;;;;;;4947549;29;20453;-70
2021/12/07 07:04:21;;;;;;;10.20;4.85;;;;;;;;;;4948060;29;20133;-71
2021/12/07 07:06:48;;;;;;;13.80;4.97;;;;;;;;;;4947802;28;20166;-70
2021/12/07 07:09:14;;;;;;;11.52;4.95;;;;;;;;;;4950417;28;20492;-73
2021/12/07 07:11:41;;;;;;;17.48;5.13;;;;;;;;;;4915408;29;20051;-73
2021/12/07 07:14:08;;;;;;;14.68;5.32;;;;;;;;;;4944892;29;20054;-76
2021/12/07 07:16:34;;;;;;;13.35;5.15;;;;;;;;;;4930085;29;20047;-72
2021/12/07 07:19:01;;;;;;;13.07;4.70;;;;;;;;;;4940027;29;20039;-73
2021/12/07 07:21:27;;;;;;;16.90;5.35;;;;;;;;;;4946813;29;20043;-73
2021/12/07 07:23:53;;;;;;;11.30;5.53;;;;;;;;;;4945928;29;20039;-73
2021/12/07 07:26:20;;;;;;;9.60;4.47;;;;;;;;;;4948112;29;20078;-72
2021/12/07 07:28:46;;;;;;;14.88;5.40;;;;;;;;;;4940112;29;20495;-72
2021/12/07 07:31:13;;;;;;;12.35;4.85;;;;;;;;;;4947073;29;20441;-72
2021/12/07 07:33:40;;;;;;;12.18;5.28;;;;;;;;;;4943127;29;20048;-72
2021/12/07 07:36:06;;;;;;;17.13;5.72;;;;;;;;;;4928709;29;20181;-73
2021/12/07 07:38:33;;;;;;;11.60;5.32;;;;;;;;;;4939216;29;20058;-73
2021/12/07 07:40:59;;;;;;;25.02;6.25;;;;;;;;;;4947103;29;20035;-73
2021/12/07 07:43:25;;;;;;;14.20;4.82;;;;;;;;;;4946887;29;20039;-72
2021/12/07 07:45:52;;;;;;;16.35;5.15;;;;;;;;;;4947437;29;20049;-73
2021/12/07 07:48:19;;;;;;;15.13;5.47;;;;;;;;;;4937261;28;20075;-73
2021/12/07 07:50:46;;;;;;;19.75;6.03;;;;;;;;;;4928349;29;20484;-73
2021/12/07 07:53:12;;;;;;;25.60;7.00;;;;;;;;;;4932239;29;20047;-73
2021/12/07 07:55:40;;;;;;;15.80;5.30;;;;;;;;;;4947555;29;20508;-73
2021/12/07 07:58:06;;;;;;;11.43;5.07;;;;;;;;;;4937626;29;20058;-73
2021/12/07 08:00:33;;;;;;;15.27;5.75;;;;;;;;;;4928663;29;20069;-73
2021/12/07 08:03:00;;;;;;;19.23;6.32;;;;;;;;;;4932223;29;20070;-73
2021/12/07 08:05:26;;;;;;;13.77;5.82;;;;;;;;;;4946449;29;20043;-73
2021/12/07 08:07:52;;;;;;;13.90;6.18;;;;;;;;;;4945638;29;20408;-73
2021/12/07 08:10:21;;;;;;;17.88;5.40;;;;;;;;;;4945303;29;20523;-72
2021/12/07 08:12:47;;;;;;;17.38;6.43;;;;;;;;;;4947409;29;20456;-73
2021/12/07 08:15:14;;;;;;;19.17;5.55;;;;;;;;;;4946643;29;20047;-73
2021/12/07 08:17:40;;;;;;;13.40;5.20;;;;;;;;;;4933173;29;20397;-73
2021/12/07 08:20:07;;;;;;;12.15;4.57;;;;;;;;;;4928376;29;20036;-73
2021/12/07 08:22:33;;;;;;;14.32;4.40;;;;;;;;;;4927954;29;20063;-73
2021/12/07 08:24:59;;;;;;;13.45;4.65;;;;;;;;;;4946573;29;20047;-73
2021/12/07 08:27:26;;;;;;;16.08;5.07;;;;;;;;;;4936936;29;20126;-73
2021/12/07 08:29:53;;;;;;;17.70;4.40;;;;;;;;;;4928466;29;20070;-73
2021/12/07 08:32:19;;;;;;;11.80;4.30;;;;;;;;;;4929036;29;20051;-73
2021/12/07 08:34:45;;;;;;;10.57;4.57;;;;;;;;;;4928703;29;20513;-73
2021/12/07 08:37:11;;;;;;;11.90;4.90;;;;;;;;;;4936540;29;20075;-73
2021/12/07 08:39:38;;;;;;;12.57;4.38;;;;;;;;;;4929216;29;20493;-73
2021/12/07 08:42:05;;;;;;;14.60;5.28;;;;;;;;;;4946644;29;20047;-73
2021/12/07 08:44:31;;;;;;;10.43;4.82;;;;;;;;;;4929604;29;20051;-73
2021/12/07 08:46:57;;;;;;;13.50;4.50;;;;;;;;;;4936790;29;20048;-73
2021/12/07 08:49:24;;;;;;;10.07;4.03;;;;;;;;;;4929483;29;20409;-73
2021/12/07 08:51:51;;;;;;;13.35;4.00;;;;;;;;;;4928127;29;20040;-72
2021/12/07 08:54:27;;;;;;;16.63;3.97;;;;;;;;;;4928790;29;20055;-73
2021/12/07 08:59:43;;;;;;;15.80;4.20;;;;;;;;;;4947148;29;20497;-73
2021/12/07 09:02:10;;;;;;;16.10;4.50;;;;;;;;;;4931558;29;20056;-73
2021/12/07 09:04:36;;;;;;;12.05;4.75;;;;;;;;;;4932044;29;20058;-72
2021/12/07 09:07:05;;;;;;;15.90;5.30;;;;;;;;;;4942795;29;20043;-72
2021/12/07 09:09:31;;;;;;;11.63;4.80;;;;;;;;;;4932401;29;20501;-73
2021/12/07 09:11:57;;;;;;;19.40;4.70;;;;;;;;;;4933076;29;20394;-73
2021/12/07 09:14:24;;;;;;;19.63;5.25;;;;;;;;;;4950070;29;20047;-72
2021/12/07 09:16:50;;;;;;;10.93;4.82;;;;;;;;;;4937577;29;20062;-73
2021/12/07 09:19:16;;;;;;;15.35;5.50;;;;;;;;;;4931809;29;20051;-73
2021/12/07 09:21:43;;;;;;;12.18;4.63;;;;;;;;;;4931215;29;20043;-73
2021/12/07 09:24:09;;;;;;;9.30;4.75;;;;;;;;;;4931908;29;20049;-71
2021/12/07 09:26:36;;;;;;;12.85;4.82;;;;;;;;;;4943366;29;20114;-71
2021/12/07 09:29:03;;;;;;;15.48;4.50;;;;;;;;;;4931388;29;20822;-71
2021/12/07 09:31:29;;;;;;;17.92;4.90;;;;;;;;;;4931752;29;20091;-71
2021/12/07 09:33:56;;;;;;;13.70;4.85;;;;;;;;;;4931642;29;20449;-71
2021/12/07 09:36:22;;;;;;;15.98;3.80;;;;;;;;;;4938621;29;20090;-71
2021/12/07 09:38:49;;;;;;;19.45;5.15;;;;;;;;;;4946505;29;20102;-71
2021/12/07 09:41:16;;;;;;;14.45;4.65;;;;;;;;;;4948716;29;20130;-71
2021/12/07 09:43:42;;;;;;;17.75;4.70;;;;;;;;;;4949462;29;20613;-71
2021/12/07 09:46:09;;;;;;;14.80;4.50;;;;;;;;;;4937185;29;20162;-71
2021/12/07 09:48:36;;;;;;;18.90;5.25;;;;;;;;;;4931691;29;20039;-70
2021/12/07 09:51:03;;;;;;;31.50;4.93;;;;;;;;;;4930247;29;20480;-71
2021/12/07 09:53:29;;;;;;;13.80;4.03;;;;;;;;;;4931474;29;20178;-71
2021/12/07 09:55:56;;;;;;;14.52;4.28;;;;;;;;;;4941839;29;20051;-71
2021/12/07 09:58:22;;;;;;;11.60;3.83;;;;;;;;;;4949487;29;20042;-71
2021/12/07 10:00:49;;;;;;;11.88;4.15;;;;;;;;;;4949375;29;20054;-71
2021/12/07 10:03:16;;;;;;;11.23;4.20;;;;;;;;;;4940321;29;20052;-70
2021/12/07 10:05:43;;;;;;;14.18;5.80;;;;;;;;;;4941197;29;20056;-71
2021/12/07 10:08:09;;;;;;;11.75;3.72;;;;;;;;;;4932040;29;20125;-70
2021/12/07 10:10:38;;;;;;;11.18;3.72;;;;;;;;;;4931600;29;20051;-70
2021/12/07 10:13:04;;;;;;;9.07;3.85;;;;;;;;;;4930555;29;20039;-70
2021/12/07 10:15:31;;;;;;;9.75;3.50;;;;;;;;;;4937133;29;20070;-70
2021/12/07 10:18:09;;;;;;;8.63;4.07;;;;;;;;;;4930790;29;20123;-70
2021/12/07 10:20:39;;;;;;;13.27;4.03;;;;;;;;;;4930295;29;20183;-71
2021/12/07 10:23:21;;;;;;;18.90;4.90;;;;;;;;;;4930650;29;20062;-70
2021/12/07 10:25:51;;;;;;;10.95;3.85;;;;;;;;;;4931445;29;20101;-71
2021/12/07 10:28:32;;;;;;;22.27;4.43;;;;;;;;;;4932022;29;20074;-70
2021/12/07 10:31:02;;;;;;;15.70;4.22;;;;;;;;;;4948707;29;20043;-70
2021/12/07 10:33:31;;;;;;;19.02;4.50;;;;;;;;;;4948876;29;20401;-70
2021/12/07 10:36:07;;;;;;;16.52;3.88;;;;;;;;;;4930154;29;20095;-70
2021/12/07 10:38:34;;;;;;;14.32;4.38;;;;;;;;;;4930851;29;20055;-69
2021/12/07 10:41:00;;;;;;;11.52;4.25;;;;;;;;;;4942775;29;20070;-70
2021/12/07 10:43:39;;;;;;;9.95;3.85;;;;;;;;;;4948183;29;20043;-70
2021/12/07 10:46:24;;;;;;;12.15;4.35;;;;;;;;;;4930372;29;20039;-70
2021/12/07 10:48:51;;;;;;;10.95;3.90;;;;;;;;;;4931953;29;20406;-70
2021/12/07 10:51:17;;;;;;;16.13;3.75;;;;;;;;;;4931516;29;20051;-69
2021/12/07 10:53:54;;;;;;;10.15;3.78;;;;;;;;;;4933908;29;20043;-69
2021/12/07 10:56:33;;;;;;;14.52;4.47;;;;;;;;;;4948412;29;20122;-69
2021/12/07 10:59:03;;;;;;;10.95;3.60;;;;;;;;;;4946318;28;20051;-69
2021/12/07 11:01:32;;;;;;;11.30;3.58;;;;;;;;;;4937680;29;20043;-68
2021/12/07 11:03:58;;;;;;;;;;;;;;;;;;4941324;29;20051;-69
2021/12/07 11:06:24;;;;;;;11.55;3.40;;;;;;;;;;4929487;29;19950;-68
2021/12/07 11:08:56;;;;;;;15.32;3.63;;;;;;;;;;4930239;29;20402;-70
2021/12/07 11:11:27;;;;;;;14.07;3.70;;;;;;;;;;4933530;29;20130;-68
2021/12/07 11:13:54;;;;;;;15.48;3.60;;;;;;;;;;4939755;29;20049;-68
2021/12/07 11:16:20;;;;;;;18.02;4.20;;;;;;;;;;4930583;29;20128;-68
2021/12/07 11:18:48;;;;;;;11.93;3.63;;;;;;;;;;4947441;29;20043;-68
2021/12/07 11:21:16;;;;;;;12.38;3.67;;;;;;;;;;4946647;29;20126;-67
2021/12/07 11:23:44;;;;;;;15.82;3.58;;;;;;;;;;4938773;28;20059;-67
2021/12/07 11:31:27;;;;;;;9.97;3.73;;;;;;;;;;4945321;29;20133;-67
2021/12/07 11:33:54;;;;;;;7.53;3.58;;;;;;;;;;4936271;29;20555;-68
2021/12/07 11:36:24;;;;;;;13.32;3.47;;;;;;;;;;4912387;29;20425;-71
2021/12/07 11:38:52;;;;;;;10.23;3.33;;;;;;;;;;4929124;29;20048;-68
2021/12/07 11:41:20;;;;;;;14.18;3.35;;;;;;;;;;4929600;29;20535;-67
2021/12/07 11:43:55;;;;;;;9.60;3.30;;;;;;;;;;5131064;27;1307668;-67
2021/12/07 11:46:22;;;;;;;13.00;3.00;;;;;;;;;;5164547;27;20038;-70
2021/12/07 11:48:48;;;;;;;15.43;4.28;;;;;;;;;;5164885;27;20083;-67
2021/12/07 11:51:14;;;;;;;14.63;3.72;;;;;;;;;;5162825;27;20043;-67
2021/12/07 11:53:42;;;;;;;6.22;3.08;;;;;;;;;;5150955;27;20301;-68
2021/12/07 11:56:08;;;;;;;9.20;3.60;;;;;;;;;;5144595;27;20043;-68
2021/12/07 11:58:35;;;;;;;11.55;3.13;;;;;;;;;;5140335;27;20134;-67
2021/12/07 12:01:06;;;;;;;16.58;3.80;;;;;;;;;;5143880;27;20158;-68
2021/12/07 12:03:32;;;;;;;12.65;3.22;;;;;;;;;;5157118;27;20492;-68
2021/12/07 12:05:59;;;;;;;8.60;3.10;;;;;;;;;;5163225;27;20038;-66
2021/12/07 12:08:25;;;;;;;13.18;3.65;;;;;;;;;;5162007;27;20046;-68
2021/12/07 12:10:57;;;;;;;16.42;3.95;;;;;;;;;;5144568;27;20487;-68
2021/12/07 12:13:31;;;;;;;17.05;4.07;;;;;;;;;;5150389;27;20043;-69
2021/12/07 12:16:03;;;;;;;14.73;3.78;;;;;;;;;;5143981;27;20043;-68
2021/12/07 12:18:36;;;;;;;10.40;3.22;;;;;;;;;;5125857;27;20051;-68
2021/12/07 12:21:10;;;;;;;15.82;3.90;;;;;;;;;;5124586;27;20172;-67
2021/12/07 12:23:52;;;;;;;13.20;3.78;;;;;;;;;;5159894;27;20121;-69
2021/12/07 12:26:23;;;;;;;13.88;3.97;;;;;;;;;;5130392;27;20039;-68
2021/12/07 12:28:49;;;;;;;10.98;3.92;;;;;;;;;;5145102;27;20043;-68
2021/12/07 12:31:17;;;;;;;15.48;4.00;;;;;;;;;;5143742;27;20047;-68
2021/12/07 12:33:45;;;;;;;25.27;4.33;;;;;;;;;;5163025;27;20042;-67
2021/12/07 12:36:12;;;;;;;13.68;4.32;;;;;;;;;;5162405;27;20042;-68
2021/12/07 12:38:43;;;;;;;9.55;4.05;;;;;;;;;;5163092;27;20114;-69
2021/12/07 12:41:11;;;;;;;12.15;3.83;;;;;;;;;;5150643;27;20146;-68
2021/12/07 12:43:41;;;;;;;21.52;4.57;;;;;;;;;;5155449;27;20555;-68
2021/12/07 12:46:08;;;;;;;11.75;3.65;;;;;;;;;;5142979;27;20121;-69
2021/12/07 12:48:34;;;;;;;14.52;4.20;;;;;;;;;;5142720;27;20116;-69
2021/12/07 12:51:00;;;;;;;19.85;4.60;;;;;;;;;;5123988;27;20488;-69
2021/12/07 12:53:34;;;;;;;11.68;4.38;;;;;;;;;;5159641;27;20506;-70
2021/12/07 12:56:04;;;;;;;11.65;3.83;;;;;;;;;;5148683;27;20038;-70
2021/12/07 12:58:31;;;;;;;10.75;3.80;;;;;;;;;;5149052;27;20045;-69
2021/12/07 13:00:57;;;;;;;17.88;4.10;;;;;;;;;;5147676;27;20055;-69
2021/12/07 13:03:23;;;;;;;14.27;3.55;;;;;;;;;;5129763;27;20039;-69
2021/12/07 13:06:00;;;;;;;11.93;5.10;;;;;;;;;;5129966;27;20043;-70
2021/12/07 13:08:26;;;;;;;12.80;3.33;;;;;;;;;;5125772;27;20050;-70
2021/12/07 13:11:00;;;;;;;14.75;4.32;;;;;;;;;;5137268;27;20125;-70
2021/12/07 13:13:29;;;;;;;10.82;3.78;;;;;;;;;;5129341;27;20046;-70
2021/12/07 13:15:56;;;;;;;17.88;4.05;;;;;;;;;;5128833;27;20121;-70
2021/12/07 13:18:27;;;;;;;16.20;5.25;;;;;;;;;;5112498;27;20584;-70
2021/12/07 13:20:53;;;;;;;12.82;4.28;;;;;;;;;;5146904;27;20077;-70
2021/12/07 13:23:19;;;;;;;11.05;3.92;;;;;;;;;;5148998;27;20127;-70
2021/12/07 13:25:48;;;;;;;17.52;4.53;;;;;;;;;;5136080;27;20039;-70
2021/12/07 13:28:24;;;;;;;14.52;4.63;;;;;;;;;;5136508;27;20073;-70
2021/12/07 13:31:02;;;;;;;15.68;4.35;;;;;;;;;;5131823;27;20126;-73
2021/12/07 13:33:31;;;;;;;17.38;3.88;;;;;;;;;;5126153;27;20076;-70
2021/12/07 13:35:58;;;;;;;19.13;4.85;;;;;;;;;;5127546;27;20047;-70
2021/12/07 13:38:26;;;;;;;11.77;3.92;;;;;;;;;;5139333;27;20171;-70
2021/12/07 13:40:54;;;;;;;10.73;4.83;;;;;;;;;;5148183;27;20038;-71
2021/12/07 13:43:29;;;;;;;11.27;4.30;;;;;;;;;;5147734;27;20823;-71
2021/12/07 13:46:14;;;;;;;18.30;4.93;;;;;;;;;;5147633;27;20064;-71
2021/12/07 13:48:41;;;;;;;11.57;3.92;;;;;;;;;;5134000;27;20042;-70
2021/12/07 13:51:08;;;;;;;19.00;4.10;;;;;;;;;;5127419;27;20035;-70
2021/12/07 13:53:35;;;;;;;16.33;4.78;;;;;;;;;;5128491;27;20077;-70
2021/12/07 13:56:01;;;;;;;15.93;4.63;;;;;;;;;;5143596;27;20046;-70
2021/12/07 13:58:31;;;;;;;19.08;5.30;;;;;;;;;;5132745;27;20403;-70
2021/12/07 14:01:00;;;;;;;14.45;4.20;;;;;;;;;;5109516;27;20047;-70
2021/12/07 14:03:26;;;;;;;10.00;4.50;;;;;;;;;;5109900;27;20046;-70
2021/12/07 14:05:52;;;;;;;16.60;4.45;;;;;;;;;;5126420;27;20067;-70
2021/12/07 14:08:18;;;;;;;15.93;5.00;;;;;;;;;;5132569;27;20724;-70
2021/12/07 14:10:46;;;;;;;17.88;4.95;;;;;;;;;;5128178;27;20646;-70
2021/12/07 14:13:14;;;;;;;14.00;4.78;;;;;;;;;;5127811;27;20538;-70
2021/12/07 14:15:43;;;;;;;13.40;5.25;;;;;;;;;;5127705;27;21142;-70
2021/12/07 14:18:12;;;;;;;16.58;4.80;;;;;;;;;;5142388;27;20079;-70
2021/12/07 14:20:38;;;;;;;;;;;;;;;;;;5147040;27;20085;-70
2021/12/07 14:23:22;;;;;;;14.00;4.95;;;;;;;;;;5147036;27;19919;-70
2021/12/07 14:25:51;;;;;;;14.35;5.43;;;;;;;;;;5148070;27;20065;-70
2021/12/07 14:28:38;;;;;;;21.85;5.13;;;;;;;;;;5130521;27;20129;-70
2021/12/07 14:31:10;;;;;;;13.57;6.10;;;;;;;;;;5127665;27;20062;-70
2021/12/07 14:33:39;;;;;;;16.75;6.15;;;;;;;;;;5141855;27;20700;-70
2021/12/07 14:36:05;;;;;;;;;;;;;;;;;;5129108;27;20035;-70
2021/12/07 14:38:32;;;;;;;19.33;6.07;;;;;;;;;;5146906;27;20009;-70
2021/12/07 14:41:03;;;;;;;17.30;6.05;;;;;;;;;;5130301;27;20043;-70
2021/12/07 14:43:29;;;;;;;22.63;7.18;;;;;;;;;;5146549;27;20055;-70
2021/12/07 14:46:01;;;;;;;16.80;6.65;;;;;;;;;;5145161;27;20045;-70
2021/12/07 14:48:27;;;;;;;19.00;6.90;;;;;;;;;;5131816;27;20095;-70
2021/12/07 14:50:54;;;;;;;16.77;7.75;;;;;;;;;;5145635;27;20039;-72
2021/12/07 14:53:33;;;;;;;18.35;6.45;;;;;;;;;;5109240;27;20068;-71
2021/12/07 14:55:59;;;;;;;18.63;6.83;;;;;;;;;;5114230;27;20043;-71
2021/12/07 14:58:32;;;;;;;17.20;6.78;;;;;;;;;;5118529;27;20078;-70
2021/12/07 15:00:59;;;;;;;19.40;7.10;;;;;;;;;;5127500;27;20432;-70
2021/12/07 15:03:36;;;;;;;23.05;7.35;;;;;;;;;;5127588;27;20421;-70
2021/12/07 15:06:03;;;;;;;17.10;7.30;;;;;;;;;;5121471;27;20039;-70
2021/12/07 15:08:29;;;;;;;25.02;7.88;;;;;;;;;;5102804;27;20126;-70
2021/12/07 15:10:58;;;;;;;18.33;7.72;;;;;;;;;;5120654;27;20035;-70
2021/12/07 15:13:26;;;;;;;26.30;7.20;;;;;;;;;;5120528;27;20042;-70
2021/12/07 15:15:53;;;;;;;19.80;7.47;;;;;;;;;;5119562;27;20415;-70
2021/12/07 15:18:19;;;;;;;21.65;7.70;;;;;;;;;;5127920;27;20039;-70
2021/12/07 15:20:47;;;;;;;16.52;7.03;;;;;;;;;;5126553;27;20186;-70
2021/12/07 15:23:14;;;;;;;16.92;6.90;;;;;;;;;;5123190;27;20434;-70
2021/12/07 15:25:40;;;;;;;21.60;6.75;;;;;;;;;;5124814;27;20040;-70
2021/12/07 15:28:06;;;;;;;27.40;7.45;;;;;;;;;;5119609;27;20110;-70
2021/12/07 15:30:33;;;;;;;18.45;6.28;;;;;;;;;;5106444;27;20072;-70
2021/12/07 15:32:59;;;;;;;21.83;6.35;;;;;;;;;;5127015;27;20492;-70
2021/12/07 15:35:26;;;;;;;17.42;6.07;;;;;;;;;;5122795;27;20145;-74
2021/12/07 15:37:52;;;;;;;16.50;6.70;;;;;;;;;;5100812;27;20050;-71
2021/12/07 15:40:20;;;;;;;14.20;6.32;;;;;;;;;;5127467;27;20164;-71
2021/12/07 15:42:46;;;;;;;15.00;6.50;;;;;;;;;;5092077;27;20043;-71
2021/12/07 15:45:13;;;;;;;16.52;6.63;;;;;;;;;;5123064;27;20126;-70
2021/12/07 15:47:41;;;;;;;28.30;7.50;;;;;;;;;;5101967;27;20046;-70
2021/12/07 15:50:11;;;;;;;16.70;6.70;;;;;;;;;;5107609;27;20050;-70
2021/12/07 15:52:43;;;;;;;15.00;6.75;;;;;;;;;;5127174;27;20049;-69
2021/12/07 15:55:12;;;;;;;24.27;7.10;;;;;;;;;;5126383;27;20039;-70
2021/12/07 15:57:41;;;;;;;15.07;6.43;;;;;;;;;;5108999;27;20047;-70
2021/12/07 16:00:07;;;;;;;;;;;;;;;;;;5120865;27;20067;-70
2021/12/07 16:02:33;;;;;;;22.73;6.25;;;;;;;;;;5125099;27;19919;-70
2021/12/07 16:05:10;;;;;;;19.20;6.18;;;;;;;;;;5120015;27;20070;-71
2021/12/07 16:07:45;;;;;;;17.05;5.82;;;;;;;;;;5123285;27;20039;-68
2021/12/07 16:10:14;;;;;;;21.67;6.38;;;;;;;;;;5114064;27;20115;-68
2021/12/07 16:12:40;;;;;;;20.98;6.78;;;;;;;;;;5103049;27;20111;-69